Hauptseite
METAR-TAF:

METAR-TAF

Flughäfen :

Kassel, Deutschland

Flughafen Kassel-Calden

Breite: 51-24N, Länge: 009-23E, Höhe: 277 m

Beobachtung

Neuester Wetterbericht von vor 33 Minuten, um 08:20 UTC
Wind 13 kt aus Süd
Temperatur 9°C
Luftfeuchtigkeit 71%
Luftdruck 1005 hPa
Sichtweite 10 km oder mehr
Durchbrochene Bewölkung in der Höhe von 3000 ft

METAR: EDVK 270820Z 17013KT 9999 BKN030 09/04 Q1005

Zeit: 09:53 (08:53 UTC)

Prognose

Neuester Wetterbericht von vor 53 Minuten, um 08:00 UTC
Gültige Prognose vom 27 um 09 UTC bis 27 um 18 UTC
Wind 12 kt aus Süd
Sichtweite 10 km oder mehr
Durchbrochene Bewölkung in der Höhe von 3000 ft
Übergehend zu
vom 27 um 09 UTC bis 27 um 11 UTC
Wind 15 kt aus Süd, Böen bis zu 25 kt
Zeitweise
vom 27 um 11 UTC bis 27 um 18 UTC
Wind 20 kt aus Süd, Böen bis zu 32 kt

TAF: EDVK 270800Z 2709/2718 19012KT 9999 BKN030 BECMG 2709/2711 19015G25KT TEMPO 2711/2718 19020G32KT

Wetterbeobachtungen und Prognosen von mehr als 4000 Flughäfen (METAR und TAF Bericht).

Die verfügbaren Stationen werden durch gelbe und rote Markierungen auf der Karte dargestellt.

Führen Sie die Maus auf sie, um den Namen der Station zu sehen.

Darauf klicken, um die Beobachtung von Wetterbeobachtungen und Prognosen zu sehen.

Um die Karte zu ändern : klicken Sie auf den grünen Tasten mit einem schwarzen Kreuz Zum Vergrößern, auf den grünen Button mit einem Gedankenstrich zu verkleinern, oder auf die grünen Pfeile für benachbarte Karten.


METAR-TAF: